Time;durP1;ratioP1;P1;durP2;ratioP2;P2;SDS_P1;SDS_P2;PMS_P1;PMS_P2;Temp;Humidity;BMP_temperature;BMP_pressure;BME280_temperature;BME280_humidity;BME280_pressure;Samples;Min_cycle;Max_cycle;Signal;HPM_P1;HPM_P2
2022/11/15 00:02:11;;;;;;;46.30;26.73;;;;;;;6.45;84.20;99372.19;5107099;28;20048;-71
2022/11/15 00:04:38;;;;;;;50.72;30.25;;;;;;;6.45;84.37;99374.81;5107394;28;20036;-71
2022/11/15 00:07:04;;;;;;;50.63;30.67;;;;;;;6.41;84.46;99367.03;5106218;28;20042;-71
2022/11/15 00:09:31;;;;;;;52.28;30.60;;;;;;;6.36;84.43;99366.34;5107323;28;20040;-71
2022/11/15 00:11:58;;;;;;;42.65;28.02;;;;;;;6.03;84.59;99307.09;5106537;28;20204;-71
2022/11/15 00:14:25;;;;;;;47.00;28.88;;;;;;;6.39;84.58;99357.47;5106015;28;20048;-72
2022/11/15 00:16:51;;;;;;;44.22;28.58;;;;;;;6.41;84.50;99355.66;5106281;28;20319;-72
2022/11/15 00:19:20;;;;;;;46.33;28.70;;;;;;;6.42;84.54;99352.97;5107113;28;20055;-72
2022/11/15 00:21:46;;;;;;;48.72;29.15;;;;;;;6.09;84.43;99297.19;5106894;28;20304;-72
2022/11/15 00:24:13;;;;;;;48.42;28.02;;;;;;;5.78;84.36;99237.00;5105968;28;20371;-72
2022/11/15 00:26:40;;;;;;;45.45;28.13;;;;;;;5.03;84.33;99106.66;5106695;28;20195;-72
2022/11/15 00:29:07;;;;;;;51.28;29.88;;;;;;;6.29;84.57;99325.38;5106712;28;20111;-72
2022/11/15 00:31:34;;;;;;;45.58;27.45;;;;;;;6.39;84.73;99347.81;5105761;28;20078;-72
2022/11/15 00:34:00;;;;;;;51.20;28.45;;;;;;;6.38;84.87;99348.72;5106606;28;20196;-72
2022/11/15 00:36:29;;;;;;;46.10;27.88;;;;;;;6.36;84.89;99345.28;5106277;28;20040;-72
2022/11/15 00:38:56;;;;;;;44.95;26.75;;;;;;;6.37;84.95;99344.38;5106096;28;20036;-72
2022/11/15 00:41:22;;;;;;;45.70;28.77;;;;;;;6.37;84.89;99347.00;5107000;28;20040;-72
2022/11/15 00:43:49;;;;;;;48.05;30.50;;;;;;;6.38;85.01;99337.34;5106748;28;20044;-72
2022/11/15 00:46:16;;;;;;;50.78;28.02;;;;;;;6.38;85.11;99339.97;5105796;28;20046;-72
2022/11/15 00:48:43;;;;;;;51.28;30.58;;;;;;;5.41;85.22;99177.03;5105503;28;20036;-72
2022/11/15 00:51:09;;;;;;;47.50;28.98;;;;;;;6.09;85.04;99280.56;5106239;28;20066;-72
2022/11/15 00:53:38;;;;;;;49.58;30.50;;;;;;;6.41;85.07;99335.44;5105454;28;20040;-72
2022/11/15 00:56:05;;;;;;;47.78;28.15;;;;;;;6.43;84.99;99338.88;5105707;28;20126;-72
2022/11/15 00:58:32;;;;;;;49.35;29.48;;;;;;;6.45;85.14;99346.72;5106122;28;20044;-72
2022/11/15 01:01:07;;;;;;;41.40;26.38;;;;;;;5.90;85.24;99240.94;5106443;28;20040;-72
2022/11/15 01:03:33;;;;;;;40.25;26.60;;;;;;;6.40;84.97;99319.72;5106110;28;20067;-72
2022/11/15 01:06:00;;;;;;;43.65;25.98;;;;;;;6.42;84.88;99321.38;5105511;28;20097;-72
2022/11/15 01:08:27;;;;;;;38.47;23.13;;;;;;;6.40;84.96;99325.84;5106591;28;20040;-72
2022/11/15 01:10:55;;;;;;;43.28;24.98;;;;;;;6.39;85.21;99323.25;5105440;28;20085;-72
2022/11/15 01:13:22;;;;;;;39.67;25.02;;;;;;;6.40;85.12;99317.06;5105937;28;20303;-72
2022/11/15 01:15:49;;;;;;;40.97;26.10;;;;;;;5.81;85.12;99219.38;5106242;28;20051;-72
2022/11/15 01:18:15;;;;;;;41.75;26.25;;;;;;;6.41;85.09;99313.53;5105807;28;20044;-72
2022/11/15 01:20:43;;;;;;;42.35;26.65;;;;;;;6.41;85.04;99310.91;5105891;28;20208;-72
2022/11/15 01:23:09;;;;;;;39.03;24.67;;;;;;;6.43;84.94;99309.91;5106093;28;20062;-72
2022/11/15 01:25:36;;;;;;;39.17;25.95;;;;;;;6.45;85.12;99307.22;5106081;28;20048;-72
2022/11/15 01:28:04;;;;;;;40.63;25.50;;;;;;;6.45;85.11;99312.50;5105760;28;20165;-72
2022/11/15 01:30:31;;;;;;;41.53;24.90;;;;;;;6.43;85.28;99306.44;5106320;28;20040;-72
2022/11/15 01:32:58;;;;;;;45.17;26.70;;;;;;;6.43;85.29;99307.28;5106355;28;20371;-72
2022/11/15 01:35:25;;;;;;;43.22;26.83;;;;;;;6.19;85.43;99274.03;5105974;28;20196;-72
2022/11/15 01:37:51;;;;;;;40.90;25.75;;;;;;;6.40;85.44;99301.28;5105862;28;20040;-72
2022/11/15 01:40:18;;;;;;;41.58;26.92;;;;;;;5.91;85.36;99221.59;5105924;28;20059;-72
2022/11/15 01:42:45;;;;;;;42.60;26.73;;;;;;;5.36;85.44;99126.41;5105815;28;20032;-72
2022/11/15 01:45:15;;;;;;;41.60;24.17;;;;;;;6.39;85.56;99303.06;5105892;28;20094;-72
2022/11/15 01:47:46;;;;;;;45.60;25.65;;;;;;;6.38;85.53;99296.09;5105890;28;20040;-72
2022/11/15 01:50:17;;;;;;;40.55;23.50;;;;;;;6.40;85.40;99298.66;5105533;28;20047;-72
2022/11/15 01:52:44;;;;;;;41.63;25.75;;;;;;;6.19;85.58;99273.16;5109491;28;20199;-72
2022/11/15 01:55:16;;;;;;;43.63;25.95;;;;;;;6.37;85.54;99297.00;5109709;28;20221;-72
2022/11/15 01:57:46;;;;;;;41.78;24.55;;;;;;;6.36;85.51;99295.28;5109575;28;20044;-72
2022/11/15 02:00:16;;;;;;;43.13;24.90;;;;;;;5.85;85.44;99211.31;5109880;28;20288;-72
2022/11/15 02:02:43;;;;;;;37.97;23.25;;;;;;;6.34;85.52;99297.13;5110106;28;20044;-72
2022/11/15 02:05:10;;;;;;;40.83;24.23;;;;;;;6.33;85.36;99291.91;5109640;28;20055;-72
2022/11/15 02:07:38;;;;;;;40.60;24.35;;;;;;;6.34;85.37;99286.59;5109214;28;20040;-72
2022/11/15 02:10:08;;;;;;;35.75;22.13;;;;;;;6.35;85.45;99293.56;5109530;28;20051;-72
2022/11/15 02:12:35;;;;;;;40.65;24.23;;;;;;;6.36;85.46;99295.28;5109322;28;20043;-72
2022/11/15 02:15:03;;;;;;;39.72;25.02;;;;;;;6.34;85.53;99296.25;5109464;28;20055;-72
2022/11/15 02:17:48;;;;;;;38.78;23.35;;;;;;;6.35;85.53;99298.81;5109203;28;20089;-72
2022/11/15 02:20:40;;;;;;;41.45;23.77;;;;;;;6.36;85.69;99291.78;5109539;28;20043;-72
2022/11/15 02:23:29;;;;;;;42.55;25.75;;;;;;;5.88;85.46;99211.19;5108321;28;20036;-72
2022/11/15 02:26:12;;;;;;;41.60;24.40;;;;;;;6.36;85.41;99284.75;5109086;28;20040;-73
2022/11/15 02:29:03;;;;;;;37.63;22.88;;;;;;;5.24;85.48;99094.50;5109113;28;20032;-72
2022/11/15 02:31:40;;;;;;;37.40;23.38;;;;;;;6.37;85.50;99288.25;5108726;28;20265;-72
2022/11/15 02:34:18;;;;;;;39.53;22.98;;;;;;;5.72;85.49;99237.22;5109357;28;20222;-72
2022/11/15 02:36:55;;;;;;;38.78;23.38;;;;;;;6.34;85.61;99288.34;5109138;28;20040;-71
2022/11/15 02:39:32;;;;;;;38.00;24.02;;;;;;;6.16;85.58;99260.97;5107993;28;20035;-72
2022/11/15 02:42:04;;;;;;;35.72;22.33;;;;;;;6.35;85.59;99282.19;5109159;28;20109;-72
2022/11/15 02:44:35;;;;;;;37.67;21.52;;;;;;;6.33;85.62;99290.13;5108788;28;20044;-72
2022/11/15 02:47:16;;;;;;;42.08;25.58;;;;;;;6.29;85.89;99287.69;5108248;28;20086;-72
2022/11/15 02:49:47;;;;;;;40.58;24.50;;;;;;;5.78;85.91;99217.72;5107848;28;20097;-72
2022/11/15 02:52:16;;;;;;;42.55;24.95;;;;;;;5.71;85.67;99203.09;5108606;28;20043;-72
2022/11/15 02:54:43;;;;;;;41.40;24.85;;;;;;;6.26;86.02;99285.16;5108885;28;20291;-72
2022/11/15 02:57:16;;;;;;;40.08;24.63;;;;;;;6.28;86.20;99288.59;5108575;28;20035;-72
2022/11/15 03:00:03;;;;;;;38.75;22.23;;;;;;;6.28;86.48;99281.56;5108473;28;20044;-72
2022/11/15 03:02:43;;;;;;;39.05;23.23;;;;;;;5.32;85.88;99118.72;5108189;28;20040;-72
2022/11/15 03:05:20;;;;;;;36.13;22.15;;;;;;;4.00;85.88;98891.63;5108679;28;20299;-71
2022/11/15 03:07:54;;;;;;;36.83;22.42;;;;;;;6.31;86.14;99280.59;5108311;28;20043;-72
2022/11/15 03:10:25;;;;;;;;;;;;;;;6.27;87.07;99277.22;5109062;28;20326;-72
2022/11/15 03:12:58;;;;;;;34.63;22.05;;;;;;;6.27;86.54;99268.47;5107441;28;19916;-72
2022/11/15 03:15:30;;;;;;;34.88;20.15;;;;;;;6.29;86.37;99272.75;5107317;28;20047;-72
2022/11/15 03:18:02;;;;;;;36.40;22.27;;;;;;;6.30;86.12;99270.97;5108350;28;20287;-72
2022/11/15 03:20:31;;;;;;;38.33;23.73;;;;;;;6.30;86.02;99258.66;5107438;28;20047;-72
2022/11/15 03:23:05;;;;;;;35.95;22.85;;;;;;;6.29;86.16;99259.59;5107250;28;20047;-72
2022/11/15 03:25:34;;;;;;;35.30;22.50;;;;;;;6.30;86.13;99256.03;5107326;28;20051;-72
2022/11/15 03:28:05;;;;;;;37.97;22.25;;;;;;;6.31;86.26;99259.53;5108305;28;20051;-72
2022/11/15 03:30:34;;;;;;;38.38;22.52;;;;;;;6.31;86.21;99260.38;5108146;28;20427;-72
2022/11/15 03:33:04;;;;;;;39.33;22.77;;;;;;;6.13;86.31;99221.63;5107310;28;20040;-72
2022/11/15 03:35:36;;;;;;;37.60;22.63;;;;;;;6.30;86.19;99255.19;5107865;28;20063;-72
2022/11/15 03:38:12;;;;;;;39.40;23.13;;;;;;;6.08;86.18;99220.97;5107700;28;20090;-72
2022/11/15 03:40:41;;;;;;;35.03;21.90;;;;;;;6.30;86.00;99245.50;5106863;28;20047;-72
2022/11/15 03:43:14;;;;;;;36.15;22.67;;;;;;;5.23;86.05;99072.63;5106805;28;20078;-72
2022/11/15 03:45:46;;;;;;;34.30;20.70;;;;;;;6.31;86.17;99238.47;5107741;28;20048;-72
2022/11/15 03:48:18;;;;;;;33.15;21.17;;;;;;;6.31;85.99;99227.94;5107538;28;20337;-72
2022/11/15 03:50:46;;;;;;;32.65;21.00;;;;;;;5.83;85.92;99178.09;5107688;28;20066;-73
2022/11/15 03:53:13;;;;;;;35.05;21.90;;;;;;;6.33;85.96;99232.22;5107740;28;20047;-72
2022/11/15 03:55:40;;;;;;;30.45;20.90;;;;;;;6.34;85.92;99222.56;5107675;28;20048;-72
2022/11/15 03:58:08;;;;;;;36.20;22.35;;;;;;;6.34;85.87;99225.19;5107701;28;20039;-72
2022/11/15 04:00:34;;;;;;;33.28;21.27;;;;;;;6.35;86.03;99226.91;5107605;28;20314;-72
2022/11/15 04:03:01;;;;;;;35.97;21.65;;;;;;;6.21;85.88;99206.41;5107845;28;20051;-72
2022/11/15 04:05:29;;;;;;;39.63;23.77;;;;;;;6.36;85.87;99224.22;5107210;28;20044;-73
2022/11/15 04:07:56;;;;;;;39.83;23.45;;;;;;;6.37;85.98;99232.97;5106845;28;20044;-72
2022/11/15 04:10:23;;;;;;;35.67;20.58;;;;;;;6.33;86.09;99232.22;5107143;28;20046;-72
2022/11/15 04:12:50;;;;;;;32.97;20.45;;;;;;;6.34;85.93;99240.97;5107352;28;20234;-72
2022/11/15 04:15:19;;;;;;;34.08;20.55;;;;;;;6.34;85.96;99226.03;5106074;28;20032;-72
2022/11/15 04:17:47;;;;;;;32.58;21.23;;;;;;;6.36;85.90;99223.34;5106150;28;20039;-73
2022/11/15 04:25:52;;;;;;;35.75;21.13;;;;;;;6.34;86.01;99206.75;5106771;28;20048;-72
2022/11/15 04:28:19;;;;;;;33.80;21.92;;;;;;;3.93;85.79;98805.38;5106727;28;20047;-72
2022/11/15 04:30:46;;;;;;;34.55;21.13;;;;;;;6.18;85.89;99179.34;5106199;28;20051;-72
2022/11/15 04:33:13;;;;;;;33.08;21.45;;;;;;;6.38;86.01;99210.97;5106690;28;20039;-73
2022/11/15 04:35:40;;;;;;;32.58;21.25;;;;;;;6.40;85.91;99219.69;5105790;28;20040;-72
2022/11/15 04:38:09;;;;;;;40.85;24.80;;;;;;;5.66;85.85;99089.34;5107096;28;20044;-73
2022/11/15 04:40:37;;;;;;;37.90;21.90;;;;;;;6.42;85.97;99212.56;5106000;28;20047;-72
2022/11/15 04:43:04;;;;;;;33.40;22.02;;;;;;;6.23;85.96;99172.13;5105648;28;20299;-73
2022/11/15 04:45:31;;;;;;;40.47;23.17;;;;;;;6.45;85.86;99207.19;5106757;28;20093;-72
2022/11/15 04:47:58;;;;;;;39.25;22.65;;;;;;;6.46;85.96;99202.78;5105875;28;20044;-72
2022/11/15 04:50:24;;;;;;;36.53;22.40;;;;;;;6.45;86.00;99199.28;5105346;28;20181;-72
2022/11/15 04:52:53;;;;;;;33.42;22.15;;;;;;;6.41;86.09;99190.66;5106626;28;20044;-73
2022/11/15 04:55:22;;;;;;;37.53;21.48;;;;;;;6.42;86.09;99188.88;5106518;28;20105;-72
2022/11/15 04:57:48;;;;;;;36.58;21.42;;;;;;;6.38;86.07;99187.28;5106238;28;20044;-72
2022/11/15 05:00:17;;;;;;;36.60;23.10;;;;;;;6.07;86.00;99119.25;5105273;28;20040;-72
2022/11/15 05:05:29;;;;;;;36.70;21.73;;;;;;;6.45;86.19;99185.28;5106082;28;20365;-72
2022/11/15 05:07:55;;;;;;;39.70;20.30;;;;;;;6.43;86.19;99182.69;5105754;28;20058;-72
2022/11/15 05:10:23;;;;;;;37.53;22.98;;;;;;;6.42;86.05;99189.75;5106341;28;20036;-72
2022/11/15 05:12:50;;;;;;;44.83;26.90;;;;;;;6.42;86.25;99195.00;5105995;28;20047;-72
2022/11/15 05:15:17;;;;;;;37.65;22.42;;;;;;;6.05;86.33;99137.75;5105112;28;20062;-72
2022/11/15 05:17:44;;;;;;;38.38;21.23;;;;;;;6.41;86.44;99181.91;5106212;28;20044;-72
2022/11/15 05:20:11;;;;;;;40.40;22.88;;;;;;;6.41;86.38;99181.91;5105998;28;20046;-72
2022/11/15 05:22:38;;;;;;;43.45;23.80;;;;;;;6.41;86.58;99177.50;5106335;28;20043;-72
2022/11/15 05:25:06;;;;;;;43.53;24.10;;;;;;;6.40;86.52;99174.94;5105335;28;20219;-72
2022/11/15 05:27:34;;;;;;;42.95;24.42;;;;;;;5.69;86.37;99052.44;5106083;28;20040;-72
2022/11/15 05:30:01;;;;;;;41.72;22.70;;;;;;;6.39;86.58;99174.06;5105743;28;20040;-72
2022/11/15 05:32:29;;;;;;;43.03;25.48;;;;;;;6.41;86.52;99166.09;5105962;28;20074;-72
2022/11/15 05:34:56;;;;;;;40.92;24.77;;;;;;;6.41;86.59;99174.00;5106244;28;20056;-73
2022/11/15 05:37:23;;;;;;;39.15;22.60;;;;;;;6.40;86.62;99167.88;5105902;28;20036;-72
2022/11/15 05:39:50;;;;;;;42.20;22.40;;;;;;;6.40;86.63;99169.66;5105228;28;20036;-73
2022/11/15 05:42:17;;;;;;;42.13;23.90;;;;;;;6.41;86.59;99166.97;5104760;28;20051;-72
2022/11/15 05:44:49;;;;;;;43.05;23.10;;;;;;;6.39;86.76;99163.53;5104757;28;20101;-72
2022/11/15 05:47:19;;;;;;;41.38;24.13;;;;;;;6.36;86.78;99155.78;5104705;28;20040;-72
2022/11/15 05:49:48;;;;;;;41.10;23.75;;;;;;;6.41;86.74;99168.75;5104490;28;20044;-72
2022/11/15 05:52:18;;;;;;;44.70;24.63;;;;;;;6.39;86.82;99163.53;5105993;28;20044;-72
2022/11/15 05:54:45;;;;;;;39.78;22.13;;;;;;;6.39;86.97;99163.53;5105469;28;20054;-72
2022/11/15 05:57:12;;;;;;;39.28;24.75;;;;;;;6.07;86.73;99103.47;5106013;28;20056;-73
2022/11/15 05:59:40;;;;;;;42.90;25.90;;;;;;;6.41;86.91;99159.06;5105400;28;20177;-72
2022/11/15 06:02:08;;;;;;;45.90;25.92;;;;;;;6.45;86.87;99164.22;5105688;28;20085;-72
2022/11/15 06:04:35;;;;;;;45.83;24.98;;;;;;;6.48;86.79;99161.44;5105457;28;20059;-73
2022/11/15 06:07:02;;;;;;;36.67;22.92;;;;;;;6.49;86.76;99157.91;5105306;28;20212;-72
2022/11/15 06:09:29;;;;;;;48.13;26.38;;;;;;;6.47;86.67;99159.75;5105641;28;20078;-72
2022/11/15 06:11:56;;;;;;;41.20;22.52;;;;;;;6.47;86.77;99165.00;5105518;28;20052;-72
2022/11/15 06:14:22;;;;;;;43.10;25.30;;;;;;;6.46;86.82;99158.88;5105572;28;20040;-73
2022/11/15 06:16:49;;;;;;;47.63;25.25;;;;;;;6.26;86.75;99125.47;5104262;28;20081;-72
2022/11/15 06:19:17;;;;;;;42.20;24.00;;;;;;;6.48;86.79;99169.34;5105033;28;20052;-72
2022/11/15 06:21:44;;;;;;;38.58;22.90;;;;;;;6.45;86.78;99170.34;5105283;28;20271;-72
2022/11/15 06:24:10;;;;;;;38.03;22.08;;;;;;;5.98;86.79;99114.38;5105544;28;20047;-72
2022/11/15 06:26:37;;;;;;;36.65;23.05;;;;;;;6.47;86.67;99168.50;5105402;28;20226;-72
2022/11/15 06:29:05;;;;;;;43.42;24.80;;;;;;;6.48;86.60;99172.84;5105173;28;20085;-72
2022/11/15 06:31:32;;;;;;;37.53;23.70;;;;;;;6.49;86.72;99174.53;5104758;28;20246;-73
2022/11/15 06:33:58;;;;;;;41.50;23.80;;;;;;;6.50;86.72;99175.41;5105627;28;20101;-72
2022/11/15 06:36:27;;;;;;;44.80;25.17;;;;;;;6.50;86.72;99171.00;5087498;28;20040;-72
2022/11/15 06:38:53;;;;;;;44.35;25.73;;;;;;;6.51;86.67;99167.44;5107397;28;20315;-72
2022/11/15 06:41:21;;;;;;;45.65;22.95;;;;;;;6.51;86.70;99163.94;5109064;28;20055;-72
2022/11/15 06:43:47;;;;;;;39.28;23.20;;;;;;;6.51;86.68;99167.44;5109033;28;20050;-72
2022/11/15 06:46:14;;;;;;;37.67;22.83;;;;;;;6.52;86.67;99174.41;5109000;28;20226;-72
2022/11/15 06:48:41;;;;;;;36.25;22.48;;;;;;;4.90;86.18;98897.94;5108717;28;20055;-72
2022/11/15 06:51:08;;;;;;;39.17;22.05;;;;;;;6.52;86.59;99171.78;5108435;28;20051;-72
2022/11/15 06:53:36;;;;;;;41.08;23.02;;;;;;;5.38;86.67;98982.69;5109137;28;20048;-72
2022/11/15 06:56:04;;;;;;;38.15;22.08;;;;;;;6.54;86.59;99179.63;5108768;28;20203;-72
2022/11/15 06:58:31;;;;;;;41.28;24.40;;;;;;;5.53;86.42;99009.25;5108321;28;20242;-72
2022/11/15 07:01:03;;;;;;;45.65;25.75;;;;;;;6.51;86.67;99180.59;5108553;28;20097;-73
2022/11/15 07:03:30;;;;;;;36.17;23.17;;;;;;;6.32;86.53;99151.56;5107544;28;20044;-72
2022/11/15 07:05:58;;;;;;;39.42;21.30;;;;;;;6.04;86.46;99132.53;5107770;28;20345;-72
2022/11/15 07:08:27;;;;;;;36.90;20.00;;;;;;;6.48;86.58;99180.72;5108312;28;20082;-72
2022/11/15 07:11:00;;;;;;;33.55;20.23;;;;;;;6.49;86.50;99178.97;5108254;28;20036;-72
2022/11/15 07:13:27;;;;;;;33.30;18.63;;;;;;;6.48;86.63;99172.84;5107406;28;20048;-72
2022/11/15 07:15:54;;;;;;;34.80;20.70;;;;;;;6.50;86.46;99178.03;5108131;28;20039;-72
2022/11/15 07:18:21;;;;;;;28.58;17.65;;;;;;;6.47;86.48;99160.59;5107229;28;20101;-72
2022/11/15 07:20:48;;;;;;;31.55;19.63;;;;;;;6.47;86.33;99170.25;5107957;28;20051;-72
2022/11/15 07:23:14;;;;;;;34.22;19.50;;;;;;;6.48;86.51;99169.34;5108015;28;20044;-72
2022/11/15 07:25:41;;;;;;;32.85;21.48;;;;;;;6.50;86.41;99163.09;5106894;28;20089;-72
2022/11/15 07:28:09;;;;;;;31.50;19.33;;;;;;;5.50;86.23;98981.34;5107785;28;20044;-71
2022/11/15 07:30:36;;;;;;;30.50;21.42;;;;;;;6.52;86.39;99158.63;5107765;28;20199;-72
2022/11/15 07:33:03;;;;;;;31.10;18.60;;;;;;;6.52;86.28;99160.41;5107735;28;20236;-72
2022/11/15 07:35:30;;;;;;;31.55;19.45;;;;;;;6.54;86.29;99155.94;5106852;28;20296;-71
2022/11/15 07:37:58;;;;;;;37.85;19.77;;;;;;;6.47;86.23;99150.06;5107730;28;20089;-71
2022/11/15 07:40:25;;;;;;;40.78;21.88;;;;;;;6.54;86.18;99153.28;5107558;28;20051;-72
2022/11/15 07:42:56;;;;;;;34.50;21.13;;;;;;;6.55;86.47;99157.63;5107849;28;20181;-71
2022/11/15 07:45:26;;;;;;;41.35;20.75;;;;;;;6.56;86.40;99151.44;5107352;28;20068;-72
2022/11/15 07:47:53;;;;;;;43.25;24.13;;;;;;;6.57;86.49;99158.44;5107610;28;20039;-71
2022/11/15 07:50:20;;;;;;;39.95;22.20;;;;;;;6.58;86.50;99152.25;5107223;28;20063;-72
2022/11/15 07:52:48;;;;;;;42.72;24.27;;;;;;;6.34;86.63;99117.28;5107282;28;20044;-72
2022/11/15 07:55:14;;;;;;;44.45;24.27;;;;;;;6.56;86.77;99154.94;5107444;28;20069;-72
2022/11/15 07:57:41;;;;;;;43.75;24.98;;;;;;;6.56;86.77;99157.56;5107434;28;20307;-72
2022/11/15 08:00:09;;;;;;;43.28;23.50;;;;;;;6.55;86.95;99155.00;5107594;28;20058;-72
2022/11/15 08:02:37;;;;;;;38.85;21.40;;;;;;;6.54;86.81;99162.06;5107371;28;20044;-72
2022/11/15 08:05:04;;;;;;;50.45;26.98;;;;;;;5.59;86.75;98988.00;5107376;28;20043;-73
2022/11/15 08:07:32;;;;;;;43.40;24.35;;;;;;;6.51;86.94;99135.84;5106984;28;20044;-72
2022/11/15 08:10:00;;;;;;;46.50;23.77;;;;;;;6.34;87.11;99114.63;5106462;28;20038;-72
2022/11/15 08:12:28;;;;;;;36.95;24.17;;;;;;;6.36;87.20;99118.91;5107348;28;20040;-72
2022/11/15 08:14:55;;;;;;;43.03;22.67;;;;;;;6.55;87.30;99147.09;5107283;28;20070;-72
2022/11/15 08:17:22;;;;;;;41.05;23.73;;;;;;;6.03;87.05;99067.69;5106127;28;20089;-72
2022/11/15 08:19:50;;;;;;;44.40;24.67;;;;;;;6.54;87.33;99148.03;5107107;28;20035;-72
2022/11/15 08:22:17;;;;;;;49.20;26.45;;;;;;;5.82;87.15;99032.59;5107094;28;20101;-73
2022/11/15 08:24:44;;;;;;;44.58;25.45;;;;;;;6.29;87.30;99106.94;5107132;28;20048;-72
2022/11/15 08:27:15;;;;;;;48.00;28.38;;;;;;;6.52;87.63;99136.69;5106740;28;20058;-72
2022/11/15 08:29:43;;;;;;;52.20;28.33;;;;;;;6.06;87.79;99070.19;5106862;28;20280;-73
2022/11/15 08:32:11;;;;;;;47.67;28.30;;;;;;;6.24;87.70;99087.00;5106963;28;20089;-72
2022/11/15 08:34:37;;;;;;;42.33;24.77;;;;;;;6.04;87.68;99049.22;5105794;28;20043;-72
2022/11/15 08:37:06;;;;;;;42.85;26.55;;;;;;;6.41;87.53;99108.19;5106567;28;20044;-72
2022/11/15 08:39:33;;;;;;;45.25;25.13;;;;;;;6.58;87.68;99146.97;5106284;28;20044;-72
2022/11/15 08:42:00;;;;;;;44.97;23.90;;;;;;;6.55;87.46;99137.44;5105459;28;20040;-72
2022/11/15 08:44:26;;;;;;;39.38;22.90;;;;;;;6.55;87.55;99139.22;5105568;28;20086;-73
2022/11/15 08:46:53;;;;;;;43.70;26.65;;;;;;;6.57;87.62;99140.00;5106646;28;20287;-72
2022/11/15 08:49:20;;;;;;;42.38;24.77;;;;;;;6.56;87.59;99136.50;5105906;28;20376;-72
2022/11/15 08:51:47;;;;;;;47.20;26.50;;;;;;;6.56;87.63;99131.25;5105562;28;20047;-72
2022/11/15 08:54:15;;;;;;;46.10;25.50;;;;;;;6.57;87.63;99140.84;5106472;28;20043;-72
2022/11/15 08:56:43;;;;;;;46.30;27.02;;;;;;;6.58;87.68;99142.56;5106405;28;20044;-72
2022/11/15 08:59:11;;;;;;;50.58;28.60;;;;;;;6.56;87.83;99136.50;5105826;28;20052;-72
2022/11/15 09:01:38;;;;;;;43.92;24.48;;;;;;;6.58;87.94;99139.94;5105878;28;20036;-72
2022/11/15 09:04:05;;;;;;;43.88;24.23;;;;;;;6.29;87.75;99099.03;5105973;28;20047;-73
2022/11/15 09:06:32;;;;;;;39.65;23.00;;;;;;;6.48;87.72;99124.59;5106145;28;20044;-72
2022/11/15 09:08:58;;;;;;;43.13;24.48;;;;;;;6.57;87.82;99135.59;5105423;28;20040;-72
2022/11/15 09:11:35;;;;;;;41.55;23.83;;;;;;;6.05;87.86;99047.44;5105760;28;20093;-73
2022/11/15 09:14:02;;;;;;;41.80;24.58;;;;;;;6.10;87.65;99056.00;5105243;28;20044;-72
2022/11/15 09:16:28;;;;;;;44.13;26.23;;;;;;;6.58;87.84;99126.78;5106315;28;20058;-73
2022/11/15 09:18:55;;;;;;;49.47;26.13;;;;;;;6.58;87.96;99120.66;5105004;28;20047;-73
2022/11/15 09:21:22;;;;;;;44.00;25.35;;;;;;;6.57;87.93;99125.06;5105695;28;20188;-73
2022/11/15 09:23:51;;;;;;;38.80;23.60;;;;;;;6.37;87.89;99081.16;5105684;28;20043;-73
2022/11/15 09:26:18;;;;;;;39.10;23.27;;;;;;;6.56;88.01;99120.72;5105331;28;20322;-73
2022/11/15 09:28:46;;;;;;;43.13;24.05;;;;;;;6.55;88.05;99121.63;5104997;28;20300;-73
2022/11/15 09:31:13;;;;;;;43.22;24.48;;;;;;;6.57;87.99;99111.91;5105554;28;20191;-73
2022/11/15 09:33:40;;;;;;;37.85;24.52;;;;;;;6.58;88.03;99118.88;5104770;28;20077;-72
2022/11/15 09:36:09;;;;;;;39.67;23.60;;;;;;;5.17;87.97;98875.81;5105959;28;20218;-73
2022/11/15 09:38:36;;;;;;;40.28;24.33;;;;;;;6.60;88.06;99106.50;5105670;28;20036;-73
2022/11/15 09:41:46;;;;;;;40.25;24.02;;;;;;;6.62;88.35;99109.06;5105534;28;20040;-72
2022/11/15 09:44:40;;;;;;;38.03;23.10;;;;;;;6.59;88.26;99099.50;5090317;28;20157;-72
2022/11/15 09:47:25;;;;;;;41.40;24.23;;;;;;;6.07;88.29;99022.78;5104665;28;20043;-73
2022/11/15 09:49:54;;;;;;;43.13;25.80;;;;;;;6.42;88.14;99073.91;5104968;28;20242;-73
2022/11/15 09:52:22;;;;;;;43.03;24.77;;;;;;;6.61;88.32;99079.25;5104722;28;20036;-72
2022/11/15 09:54:51;;;;;;;40.78;24.10;;;;;;;6.15;87.90;99011.94;5105378;28;20050;-72
2022/11/15 09:57:25;;;;;;;46.33;25.88;;;;;;;6.64;88.21;99071.22;5105720;28;20047;-72
2022/11/15 10:00:03;;;;;;;43.97;26.50;;;;;;;6.47;88.32;99047.38;5105405;28;20094;-72
2022/11/15 10:02:53;;;;;;;42.63;25.13;;;;;;;6.64;88.82;99072.97;5105425;28;20086;-73
2022/11/15 10:05:23;;;;;;;38.42;24.98;;;;;;;6.64;88.41;99071.22;5105753;28;20052;-73
2022/11/15 10:07:59;;;;;;;49.47;27.13;;;;;;;6.14;88.54;98988.31;5105626;28;20311;-73
2022/11/15 10:10:31;;;;;;;43.53;27.00;;;;;;;6.65;88.57;99091.34;5105221;28;20090;-73
2022/11/15 10:12:58;;;;;;;50.20;26.98;;;;;;;6.47;88.50;99028.09;5107513;28;20051;-73
2022/11/15 10:15:27;;;;;;;42.95;26.30;;;;;;;6.67;88.69;99063.16;5109295;28;20044;-72
2022/11/15 10:18:08;;;;;;;42.17;24.27;;;;;;;6.67;88.88;99052.63;5109785;28;20040;-72
2022/11/15 10:20:45;;;;;;;40.63;25.33;;;;;;;6.66;88.69;99045.66;5109473;28;20180;-73
2022/11/15 10:23:15;;;;;;;43.60;26.92;;;;;;;6.67;88.60;99043.88;5109497;28;20051;-73
2022/11/15 10:25:43;;;;;;;42.83;24.92;;;;;;;6.69;88.57;99029.72;5108927;28;20048;-72
2022/11/15 10:28:15;;;;;;;45.80;25.88;;;;;;;6.69;88.50;99029.72;5108875;28;20036;-72
2022/11/15 10:30:46;;;;;;;48.40;28.95;;;;;;;6.68;88.72;99030.66;5108421;28;20040;-71
2022/11/15 10:33:27;;;;;;;43.72;27.20;;;;;;;6.72;88.91;99034.00;5109238;28;20040;-72
2022/11/15 10:36:20;;;;;;;47.03;27.63;;;;;;;6.73;89.21;99026.03;5109123;28;20044;-71
2022/11/15 10:38:58;;;;;;;45.78;27.13;;;;;;;6.70;89.42;99023.53;5109211;28;20118;-73
2022/11/15 10:41:46;;;;;;;58.72;29.27;;;;;;;6.73;89.32;99012.00;5108138;28;20043;-73
2022/11/15 10:44:25;;;;;;;43.95;25.42;;;;;;;6.25;89.22;98950.09;5104013;28;20048;-72
2022/11/15 10:47:34;;;;;;;48.50;26.02;;;;;;;6.74;89.54;99009.31;5108986;28;20099;-73
2022/11/15 10:50:29;;;;;;;49.88;27.88;;;;;;;3.74;89.41;98509.91;5108373;28;20115;-73
2022/11/15 10:52:56;;;;;;;46.28;27.80;;;;;;;6.71;89.53;99000.69;5107680;28;20090;-72
2022/11/15 10:55:28;;;;;;;50.95;28.58;;;;;;;6.33;89.39;98936.59;5107982;28;20040;-72
2022/11/15 10:57:57;;;;;;;55.53;29.63;;;;;;;6.73;89.67;98990.94;5107748;28;20085;-72
2022/11/15 11:00:31;;;;;;;60.80;31.08;;;;;;;6.70;89.93;98991.94;5108369;28;20322;-73
2022/11/15 11:03:00;;;;;;;58.53;32.10;;;;;;;6.70;89.79;98989.28;5108381;28;20054;-72
2022/11/15 11:05:33;;;;;;;50.95;30.30;;;;;;;6.71;89.72;98987.53;5107634;28;20052;-72
2022/11/15 11:08:03;;;;;;;50.75;27.80;;;;;;;6.24;90.03;98902.78;5108421;28;20099;-72
2022/11/15 11:10:30;;;;;;;53.55;32.00;;;;;;;6.70;89.97;98978.75;5107260;28;20220;-72
2022/11/15 11:12:57;;;;;;;51.95;29.60;;;;;;;6.72;90.17;98976.91;5107175;28;20048;-72
2022/11/15 11:15:28;;;;;;;53.97;29.98;;;;;;;6.69;90.26;98978.84;5108185;28;20054;-73
2022/11/15 11:18:09;;;;;;;56.33;29.85;;;;;;;6.70;90.55;98965.59;5108341;28;20051;-72
2022/11/15 11:20:42;;;;;;;51.25;30.23;;;;;;;6.69;90.52;98963.88;5107034;28;20042;-72
2022/11/15 11:23:36;;;;;;;50.47;30.87;;;;;;;6.25;90.59;98883.44;5107573;28;20051;-72
2022/11/15 11:26:16;;;;;;;63.95;29.00;;;;;;;6.53;90.53;98920.75;5108196;28;20040;-73
2022/11/15 11:28:53;;;;;;;59.25;28.77;;;;;;;6.74;90.46;98951.38;5107644;28;20235;-72
2022/11/15 11:31:29;;;;;;;53.80;30.90;;;;;;;6.77;90.40;98954.78;5106962;28;20326;-73
2022/11/15 11:34:05;;;;;;;54.05;32.58;;;;;;;6.77;90.40;98947.72;5107269;28;20040;-73
2022/11/15 11:36:41;;;;;;;56.25;31.80;;;;;;;6.14;90.42;98841.81;5107875;28;20036;-73
2022/11/15 11:39:21;;;;;;;49.35;29.00;;;;;;;6.79;90.56;98948.53;5107841;28;20093;-72
2022/11/15 11:41:57;;;;;;;50.03;28.25;;;;;;;6.77;90.52;98946.88;5107445;28;20066;-72
2022/11/15 11:44:34;;;;;;;52.17;28.67;;;;;;;6.62;90.50;98907.16;5107617;28;20065;-72
2022/11/15 11:47:04;;;;;;;51.67;30.27;;;;;;;6.80;90.46;98931.81;5107643;28;20094;-72
2022/11/15 11:49:37;;;;;;;54.33;30.30;;;;;;;6.63;90.37;98897.47;5106938;28;20113;-73